Webcam

2021/02/24 22:20 EBBR 242220Z 18008KT CAVOK 13/08 Q1026 NOSIG

Webcam

--- Refresh now ---